createdAt,value
2018-07-06T00:02:11.481Z,1.40
2018-07-06T00:04:50.697Z,1.57
2018-07-06T00:07:35.923Z,1.60
2018-07-06T00:10:15.325Z,1.40
2018-07-06T00:13:00.789Z,1.20
2018-07-06T00:15:45.889Z,1.50
2018-07-06T00:18:31.425Z,1.97
2018-07-06T00:21:16.329Z,1.33
2018-07-06T00:24:01.625Z,1.40
2018-07-06T00:26:46.801Z,1.40
2018-07-06T00:29:32.083Z,1.30
2018-07-06T00:32:17.358Z,1.00
2018-07-06T00:35:02.485Z,1.53
2018-07-06T00:37:42.474Z,1.33
2018-07-06T00:40:27.689Z,1.53
2018-07-06T00:43:13.321Z,1.07
2018-07-06T00:45:58.323Z,0.90
2018-07-06T00:48:43.781Z,1.20
2018-07-06T00:51:28.753Z,1.30
2018-07-06T00:54:13.867Z,1.07
2018-07-06T00:56:58.997Z,1.20
2018-07-06T00:59:44.565Z,1.10
2018-07-06T01:02:23.800Z,1.00
2018-07-06T01:05:03.188Z,1.07
2018-07-06T01:07:48.321Z,1.00
2018-07-06T01:10:34.029Z,1.13
2018-07-06T01:13:19.146Z,1.33
2018-07-06T01:16:04.667Z,0.97
2018-07-06T01:18:49.806Z,1.43
2018-07-06T01:21:34.817Z,1.47
2018-07-06T01:24:20.033Z,1.27
2018-07-06T01:27:11.780Z,1.47
2018-07-06T01:29:56.788Z,1.23
2018-07-06T01:32:42.114Z,1.03
2018-07-06T01:35:27.227Z,1.20
2018-07-06T01:38:12.313Z,1.37
2018-07-06T01:40:57.586Z,1.47
2018-07-06T01:43:42.983Z,1.00
2018-07-06T01:46:27.987Z,1.00
2018-07-06T01:49:07.688Z,1.40
2018-07-06T01:51:52.850Z,0.93
2018-07-06T01:54:37.993Z,1.47
2018-07-06T01:57:23.536Z,1.23
2018-07-06T02:00:08.740Z,1.53
2018-07-06T02:02:53.990Z,2.10
2018-07-06T02:05:41.178Z,2.23
2018-07-06T02:08:26.614Z,1.80
2018-07-06T02:11:05.989Z,2.20
2018-07-06T02:13:51.259Z,2.90
2018-07-06T02:16:36.154Z,3.00
2018-07-06T02:19:21.647Z,2.80
2018-07-06T02:22:06.634Z,2.83
2018-07-06T02:24:46.384Z,2.97
2018-07-06T02:27:25.588Z,2.90
2018-07-06T02:30:10.614Z,3.40
2018-07-06T02:32:55.993Z,3.63
2018-07-06T02:35:41.594Z,3.23
2018-07-06T02:38:26.627Z,4.10
2018-07-06T02:41:12.137Z,5.53
2018-07-06T02:43:57.053Z,5.50
2018-07-06T02:46:36.832Z,6.90
2018-07-06T02:49:16.064Z,6.27
2018-07-06T02:52:01.435Z,6.50
2018-07-06T02:54:46.496Z,5.83
2018-07-06T02:57:31.871Z,5.37
2018-07-06T03:00:16.890Z,5.57
2018-07-06T03:03:02.302Z,6.87
2018-07-06T03:05:47.325Z,7.37
2018-07-06T03:08:34.785Z,6.70
2018-07-06T03:11:19.702Z,4.43
2018-07-06T03:14:05.221Z,5.27
2018-07-06T03:16:50.306Z,5.03
2018-07-06T03:19:35.502Z,6.23
2018-07-06T03:22:20.593Z,8.77
2018-07-06T03:25:06.207Z,6.77
2018-07-06T03:27:51.264Z,5.93
2018-07-06T03:30:30.693Z,5.17
2018-07-06T03:33:15.844Z,5.50
2018-07-06T03:36:01.057Z,6.43
2018-07-06T03:38:46.773Z,8.23
2018-07-06T03:41:31.913Z,7.83
2018-07-06T03:44:17.441Z,8.27
2018-07-06T03:47:02.604Z,6.83
2018-07-06T03:49:47.882Z,6.03
2018-07-06T03:52:32.915Z,6.80
2018-07-06T03:55:20.477Z,5.17
2018-07-06T03:58:05.677Z,5.37
2018-07-06T04:00:51.201Z,5.70
2018-07-06T04:03:36.177Z,5.63
2018-07-06T04:06:15.518Z,4.43
2018-07-06T04:09:00.809Z,4.47
2018-07-06T04:11:46.201Z,4.23
2018-07-06T04:14:25.376Z,4.63
2018-07-06T04:17:16.776Z,5.23
2018-07-06T04:19:55.904Z,4.77
2018-07-06T04:22:40.813Z,4.30
2018-07-06T04:25:26.009Z,4.70
2018-07-06T04:28:11.149Z,4.47
2018-07-06T04:30:50.372Z,4.97
2018-07-06T04:33:35.436Z,7.37
2018-07-06T04:36:20.965Z,6.07
2018-07-06T04:39:05.994Z,5.03
2018-07-06T04:41:51.611Z,4.93
2018-07-06T04:44:36.818Z,5.93
2018-07-06T04:47:24.085Z,4.23
2018-07-06T04:50:08.982Z,4.47
2018-07-06T04:52:54.401Z,4.63
2018-07-06T04:55:33.576Z,4.13
2018-07-06T04:58:18.462Z,4.67
2018-07-06T05:01:03.620Z,5.47
2018-07-06T05:03:48.794Z,4.00
2018-07-06T05:06:34.058Z,3.50
2018-07-06T05:09:19.229Z,4.03
2018-07-06T05:12:04.493Z,4.93
2018-07-06T05:14:43.891Z,4.73
2018-07-06T05:17:28.893Z,5.87
2018-07-06T05:20:14.421Z,5.17
2018-07-06T05:22:59.630Z,5.20
2018-07-06T05:25:44.803Z,4.40
2018-07-06T05:28:29.855Z,4.53
2018-07-06T05:31:09.166Z,3.70
2018-07-06T05:33:54.202Z,4.63
2018-07-06T05:36:39.681Z,4.03
2018-07-06T05:39:24.697Z,4.50
2018-07-06T05:42:04.180Z,4.80
2018-07-06T05:44:49.415Z,3.90
2018-07-06T05:47:34.659Z,3.83
2018-07-06T05:50:19.809Z,5.57
2018-07-06T05:53:05.038Z,5.30
2018-07-06T05:55:44.292Z,5.30
2018-07-06T05:58:29.501Z,5.63
2018-07-06T06:01:14.685Z,5.70
2018-07-06T06:03:59.857Z,5.53
2018-07-06T06:06:44.993Z,5.40
2018-07-06T06:09:18.771Z,4.43
2018-07-06T06:11:45.933Z,5.20
2018-07-06T06:14:13.466Z,5.90
2018-07-06T06:16:40.629Z,6.67
2018-07-06T06:19:07.790Z,7.93
2018-07-06T06:21:34.945Z,7.50
2018-07-06T06:24:02.122Z,4.80
2018-07-06T06:26:30.542Z,6.30
2018-07-06T06:28:57.905Z,6.07
2018-07-06T06:31:25.674Z,6.63
2018-07-06T06:33:53.033Z,6.17
2018-07-06T06:36:20.059Z,6.53
2018-07-06T06:38:48.097Z,7.77
2018-07-06T06:41:15.281Z,8.17
2018-07-06T06:43:42.489Z,6.83
2018-07-06T06:46:09.681Z,7.00
2018-07-06T06:48:36.913Z,6.43
2018-07-06T06:51:04.109Z,6.50
2018-07-06T06:53:31.314Z,6.93
2018-07-06T06:55:58.801Z,5.47
2018-07-06T06:58:26.511Z,6.13
2018-07-06T07:00:53.743Z,4.90
2018-07-06T07:03:21.298Z,6.20
2018-07-06T07:05:48.510Z,6.13
2018-07-06T07:08:15.682Z,6.33
2018-07-06T07:10:43.069Z,4.97
2018-07-06T07:13:10.250Z,7.63
2018-07-06T07:15:37.469Z,8.33
2018-07-06T07:18:06.691Z,8.43
2018-07-06T07:20:33.938Z,8.70
2018-07-06T07:23:01.150Z,7.77
2018-07-06T07:25:28.321Z,6.77
2018-07-06T07:27:55.493Z,7.17
2018-07-06T07:30:22.668Z,6.87
2018-07-06T07:32:50.124Z,6.40
2018-07-06T07:35:17.289Z,6.70
2018-07-06T07:37:44.560Z,6.63
2018-07-06T07:40:11.874Z,6.37
2018-07-06T07:42:39.054Z,7.20
2018-07-06T07:45:06.257Z,6.97
2018-07-06T07:47:33.530Z,7.10
2018-07-06T07:50:00.717Z,7.90
2018-07-06T07:52:39.813Z,8.83
2018-07-06T07:55:07.006Z,9.33
2018-07-06T07:57:34.490Z,8.33
2018-07-06T08:00:01.782Z,9.13
2018-07-06T08:02:28.910Z,8.40
2018-07-06T08:04:56.139Z,7.87
2018-07-06T08:07:23.325Z,8.60
2018-07-06T08:09:50.524Z,9.27
2018-07-06T08:12:17.693Z,12.10
2018-07-06T08:14:44.997Z,12.43
2018-07-06T08:17:12.208Z,12.47
2018-07-06T08:19:39.376Z,12.10
2018-07-06T08:22:06.553Z,11.70
2018-07-06T08:24:33.746Z,12.30
2018-07-06T08:27:00.919Z,11.60
2018-07-06T08:29:28.085Z,12.47
2018-07-06T08:31:57.309Z,10.13
2018-07-06T08:34:36.301Z,11.00
2018-07-06T08:37:45.633Z,14.57
2018-07-06T08:40:13.077Z,12.43
2018-07-06T08:42:41.467Z,12.53
2018-07-06T08:45:08.982Z,13.57
2018-07-06T08:47:36.205Z,11.53
2018-07-06T08:50:03.965Z,11.60
2018-07-06T08:52:31.157Z,12.93
2018-07-06T08:54:58.465Z,12.47
2018-07-06T08:57:26.946Z,13.70
2018-07-06T08:59:56.322Z,13.13
2018-07-06T09:02:24.029Z,13.33
2018-07-06T09:04:52.201Z,14.10
2018-07-06T09:07:19.361Z,13.67
2018-07-06T09:09:46.725Z,12.50
2018-07-06T09:12:13.889Z,15.27
2018-07-06T09:14:41.237Z,13.37
2018-07-06T09:17:09.901Z,10.73
2018-07-06T09:19:37.299Z,12.13
2018-07-06T09:22:04.589Z,13.37
2018-07-06T09:24:31.773Z,11.77
2018-07-06T09:26:58.988Z,11.50
2018-07-06T09:29:26.249Z,12.10
2018-07-06T09:31:53.556Z,11.63
2018-07-06T09:34:20.586Z,11.17
2018-07-06T09:36:47.751Z,11.27
2018-07-06T09:39:15.289Z,11.03
2018-07-06T09:41:42.442Z,10.57
2018-07-06T09:44:09.589Z,11.20
2018-07-06T09:46:37.289Z,10.97
2018-07-06T09:49:04.691Z,10.93
2018-07-06T09:51:31.949Z,9.17
2018-07-06T09:53:59.301Z,9.80
2018-07-06T09:56:26.449Z,9.77
2018-07-06T09:58:53.630Z,9.47
2018-07-06T10:01:20.797Z,9.70
2018-07-06T10:03:47.953Z,9.00
2018-07-06T10:06:15.149Z,9.30
2018-07-06T10:08:42.356Z,8.57
2018-07-06T10:11:11.581Z,8.00
2018-07-06T10:13:39.009Z,7.80
2018-07-06T10:16:06.215Z,7.13
2018-07-06T10:18:33.449Z,6.97
2018-07-06T10:21:00.629Z,7.17
2018-07-06T10:23:27.805Z,8.10
2018-07-06T10:25:55.441Z,7.83
2018-07-06T10:28:36.801Z,7.13
2018-07-06T10:31:18.526Z,6.70
2018-07-06T10:33:45.787Z,6.33
2018-07-06T10:36:13.434Z,6.50
2018-07-06T10:38:40.596Z,6.77
2018-07-06T10:41:07.836Z,6.33
2018-07-06T10:43:35.309Z,6.37
2018-07-06T10:46:02.469Z,7.33
2018-07-06T10:48:29.613Z,6.63
2018-07-06T10:50:56.769Z,5.00
2018-07-06T10:53:23.929Z,5.20
2018-07-06T10:55:51.110Z,6.10
2018-07-06T10:58:18.329Z,5.97
2018-07-06T11:00:45.499Z,5.27
2018-07-06T11:03:12.666Z,6.60
2018-07-06T11:05:39.881Z,6.53
2018-07-06T11:08:07.134Z,5.83
2018-07-06T11:10:34.316Z,6.80
2018-07-06T11:13:01.478Z,6.20
2018-07-06T11:15:28.645Z,5.23
2018-07-06T11:17:55.809Z,4.53
2018-07-06T11:20:22.981Z,6.40
2018-07-06T11:22:50.505Z,4.87
2018-07-06T11:25:17.715Z,5.77
2018-07-06T11:27:44.841Z,5.43
2018-07-06T11:30:12.337Z,4.10
2018-07-06T11:32:39.497Z,5.70
2018-07-06T11:35:06.680Z,5.80
2018-07-06T11:37:33.846Z,4.80
2018-07-06T11:40:01.029Z,5.27
2018-07-06T11:42:28.232Z,3.83
2018-07-06T11:44:55.451Z,4.20
2018-07-06T11:47:22.574Z,5.53
2018-07-06T11:49:49.723Z,6.23
2018-07-06T11:52:17.218Z,6.80
2018-07-06T11:54:44.425Z,7.67
2018-07-06T11:57:11.565Z,6.73
2018-07-06T11:59:39.065Z,5.63
2018-07-06T12:02:06.244Z,5.97
2018-07-06T12:04:33.530Z,5.67
2018-07-06T12:07:00.621Z,5.33
2018-07-06T12:09:27.789Z,5.10
2018-07-06T12:11:54.945Z,6.00
2018-07-06T12:14:22.105Z,7.40
2018-07-06T12:16:49.257Z,5.77
2018-07-06T12:19:18.765Z,6.67
2018-07-06T12:21:45.945Z,5.37
2018-07-06T12:24:13.152Z,6.00
2018-07-06T12:26:40.645Z,6.07
2018-07-06T12:29:07.831Z,6.37
2018-07-06T12:31:34.981Z,7.47
2018-07-06T12:34:02.193Z,7.13
2018-07-06T12:36:29.353Z,5.93
2018-07-06T12:38:56.521Z,5.70
2018-07-06T12:41:23.682Z,6.47
2018-07-06T12:43:50.885Z,6.10
2018-07-06T12:46:18.065Z,6.93
2018-07-06T12:48:45.398Z,7.17
2018-07-06T12:51:12.582Z,6.10
2018-07-06T12:53:39.746Z,6.40
2018-07-06T12:56:06.913Z,6.23
2018-07-06T12:58:34.129Z,6.53
2018-07-06T13:01:05.261Z,6.33
2018-07-06T13:03:32.463Z,5.43
2018-07-06T13:05:59.691Z,6.37
2018-07-06T13:08:26.865Z,6.40
2018-07-06T13:10:54.031Z,6.47
2018-07-06T13:13:21.235Z,6.60
2018-07-06T13:15:48.433Z,6.30
2018-07-06T13:18:15.593Z,5.85
2018-07-06T13:20:42.781Z,5.37
2018-07-06T13:23:09.963Z,6.00
2018-07-06T13:25:37.142Z,7.83
2018-07-06T13:28:04.753Z,4.93
2018-07-06T13:30:31.901Z,5.33
2018-07-06T13:32:59.072Z,5.30
2018-07-06T13:35:26.217Z,5.97
2018-07-06T13:37:53.533Z,5.60
2018-07-06T13:40:21.033Z,6.50
2018-07-06T13:42:48.187Z,6.60
2018-07-06T13:45:15.338Z,6.70
2018-07-06T13:47:42.542Z,6.30
2018-07-06T13:50:09.741Z,7.30
2018-07-06T13:52:36.889Z,5.83
2018-07-06T13:55:04.481Z,5.73
2018-07-06T13:57:31.652Z,6.63
2018-07-06T13:59:58.857Z,6.13
2018-07-06T14:02:26.034Z,5.00
2018-07-06T14:04:53.182Z,5.80
2018-07-06T14:07:22.413Z,5.73
2018-07-06T14:09:49.583Z,5.60
2018-07-06T14:12:16.794Z,5.57
2018-07-06T14:14:43.959Z,5.73
2018-07-06T14:17:11.108Z,5.23
2018-07-06T14:19:38.339Z,5.67
2018-07-06T14:22:05.441Z,5.87
2018-07-06T14:24:32.599Z,5.70
2018-07-06T14:26:59.781Z,6.17
2018-07-06T14:29:27.026Z,6.00
2018-07-06T14:31:54.193Z,5.53
2018-07-06T14:34:21.728Z,5.73
2018-07-06T14:36:48.885Z,7.17
2018-07-06T14:39:16.897Z,7.00
2018-07-06T14:41:44.074Z,6.50
2018-07-06T14:44:11.253Z,7.27
2018-07-06T14:46:38.444Z,5.13
2018-07-06T14:49:05.845Z,3.83
2018-07-06T14:51:32.991Z,3.53
2018-07-06T14:54:00.190Z,3.70
2018-07-06T14:56:27.349Z,3.23
2018-07-06T14:58:54.541Z,3.27
2018-07-06T15:01:21.761Z,3.07
2018-07-06T15:03:48.943Z,3.10
2018-07-06T15:06:16.245Z,3.13
2018-07-06T15:08:43.608Z,3.23
2018-07-06T15:11:14.789Z,2.53
2018-07-06T15:13:42.014Z,2.00
2018-07-06T15:16:09.214Z,2.37
2018-07-06T15:18:36.762Z,2.07
2018-07-06T15:21:03.937Z,2.10
2018-07-06T15:23:31.093Z,2.70
2018-07-06T15:25:58.413Z,2.27
2018-07-06T15:28:25.614Z,1.80
2018-07-06T15:30:52.801Z,2.00
2018-07-06T15:33:20.033Z,2.00
2018-07-06T15:35:47.189Z,2.45
2018-07-06T15:38:14.402Z,1.83
2018-07-06T15:40:41.591Z,2.17
2018-07-06T15:43:08.758Z,1.97
2018-07-06T15:45:35.949Z,2.43
2018-07-06T15:48:03.172Z,2.27
2018-07-06T15:50:30.437Z,2.07
2018-07-06T15:52:57.637Z,2.17
2018-07-06T15:55:24.809Z,1.80
2018-07-06T15:57:52.281Z,1.93
2018-07-06T16:00:19.474Z,2.20
2018-07-06T16:02:46.670Z,2.27
2018-07-06T16:05:13.862Z,1.93
2018-07-06T16:07:41.109Z,2.40
2018-07-06T16:10:08.285Z,2.03
2018-07-06T16:12:39.822Z,2.03
2018-07-06T16:15:06.998Z,1.60
2018-07-06T16:17:34.146Z,1.77
2018-07-06T16:20:01.329Z,1.87
2018-07-06T16:22:28.526Z,1.93
2018-07-06T16:24:55.709Z,2.30
2018-07-06T16:27:22.919Z,1.90
2018-07-06T16:29:50.106Z,2.00
2018-07-06T16:32:17.282Z,1.63
2018-07-06T16:34:44.435Z,1.60
2018-07-06T16:37:11.628Z,2.10
2018-07-06T16:39:38.785Z,1.80
2018-07-06T16:42:05.981Z,1.60
2018-07-06T16:44:33.155Z,1.80
2018-07-06T16:47:00.326Z,2.00
2018-07-06T16:49:31.657Z,2.10
2018-07-06T16:51:58.810Z,2.10
2018-07-06T16:54:25.973Z,2.17
2018-07-06T16:56:53.389Z,1.90
2018-07-06T16:59:20.557Z,1.73
2018-07-06T17:01:47.828Z,2.20
2018-07-06T17:04:15.418Z,2.47
2018-07-06T17:06:42.633Z,2.07
2018-07-06T17:09:09.804Z,2.20
2018-07-06T17:11:37.057Z,1.80
2018-07-06T17:14:04.724Z,2.37
2018-07-06T17:16:32.405Z,1.90
2018-07-06T17:18:59.572Z,2.10
2018-07-06T17:21:26.742Z,2.42
2018-07-06T17:23:54.392Z,1.63
2018-07-06T17:26:21.561Z,1.93
2018-07-06T17:28:48.709Z,1.50
2018-07-06T17:31:15.882Z,1.93
2018-07-06T17:33:43.095Z,1.50
2018-07-06T17:36:10.253Z,2.20
2018-07-06T17:38:39.777Z,2.00
2018-07-06T17:41:07.099Z,2.37
2018-07-06T17:43:34.253Z,2.20
2018-07-06T17:46:01.756Z,2.33
2018-07-06T17:48:28.913Z,1.90
2018-07-06T17:50:56.121Z,2.30
2018-07-06T17:53:23.346Z,1.70
2018-07-06T17:55:50.580Z,1.60
2018-07-06T17:58:17.743Z,2.40
2018-07-06T18:00:44.915Z,3.03
2018-07-06T18:03:12.173Z,2.57
2018-07-06T18:05:39.380Z,2.13
2018-07-06T18:08:06.554Z,2.10
2018-07-06T18:10:33.721Z,1.97
2018-07-06T18:13:00.928Z,2.20
2018-07-06T18:15:32.021Z,2.03
2018-07-06T18:18:04.336Z,2.10
2018-07-06T18:20:36.881Z,1.50
2018-07-06T18:23:06.033Z,2.23
2018-07-06T18:25:33.413Z,1.90
2018-07-06T18:28:00.907Z,2.17
2018-07-06T18:30:28.141Z,2.20
2018-07-06T18:32:55.297Z,2.00
2018-07-06T18:35:22.719Z,2.00
2018-07-06T18:37:49.905Z,2.17
2018-07-06T18:40:17.057Z,1.90
2018-07-06T18:42:44.622Z,1.60
2018-07-06T18:45:11.777Z,1.80
2018-07-06T18:47:38.972Z,2.30
2018-07-06T18:50:06.130Z,2.10
2018-07-06T18:52:33.346Z,2.07
2018-07-06T18:55:00.506Z,2.07
2018-07-06T18:57:27.685Z,2.33
2018-07-06T18:59:54.863Z,2.43
2018-07-06T19:02:22.018Z,2.03
2018-07-06T19:04:49.185Z,2.77
2018-07-06T19:07:16.393Z,1.53
2018-07-06T19:09:43.573Z,1.77
2018-07-06T19:12:11.027Z,2.20
2018-07-06T19:14:38.194Z,2.20
2018-07-06T19:17:05.377Z,2.10
2018-07-06T19:19:32.804Z,1.90
2018-07-06T19:21:59.957Z,2.23
2018-07-06T19:24:27.137Z,1.87
2018-07-06T19:26:54.364Z,2.27
2018-07-06T19:29:21.521Z,2.47
2018-07-06T19:31:48.695Z,3.37
2018-07-06T19:34:16.011Z,2.90
2018-07-06T19:36:43.190Z,2.40
2018-07-06T19:39:10.368Z,2.20
2018-07-06T19:41:37.533Z,2.53
2018-07-06T19:44:05.065Z,2.40
2018-07-06T19:46:32.237Z,2.80
2018-07-06T19:48:59.398Z,1.93
2018-07-06T19:51:26.561Z,2.73
2018-07-06T19:53:54.065Z,2.83
2018-07-06T19:56:21.217Z,2.43
2018-07-06T19:58:48.390Z,2.10
2018-07-06T20:01:15.565Z,2.40
2018-07-06T20:03:42.734Z,2.67
2018-07-06T20:06:09.914Z,2.23
2018-07-06T20:08:37.651Z,2.27
2018-07-06T20:11:04.835Z,2.23
2018-07-06T20:13:32.057Z,2.63
2018-07-06T20:15:59.222Z,2.70
2018-07-06T20:18:26.397Z,2.57
2018-07-06T20:20:53.705Z,1.90
2018-07-06T20:23:20.882Z,2.27
2018-07-06T20:25:48.079Z,2.67
2018-07-06T20:28:15.265Z,2.40
2018-07-06T20:30:42.446Z,1.83
2018-07-06T20:33:09.621Z,1.83
2018-07-06T20:35:36.803Z,2.00
2018-07-06T20:38:04.437Z,1.63
2018-07-06T20:40:31.609Z,1.60
2018-07-06T20:42:58.842Z,1.33
2018-07-06T20:45:26.013Z,1.43
2018-07-06T20:47:53.223Z,1.67
2018-07-06T20:50:20.396Z,1.70
2018-07-06T20:52:47.877Z,1.77
2018-07-06T20:55:15.051Z,1.30
2018-07-06T20:57:42.216Z,2.13
2018-07-06T21:00:11.500Z,1.20
2018-07-06T21:02:38.746Z,1.30
2018-07-06T21:05:05.944Z,1.33
2018-07-06T21:07:33.161Z,2.13
2018-07-06T21:10:00.351Z,1.57
2018-07-06T21:12:27.601Z,1.53
2018-07-06T21:14:54.769Z,1.03
2018-07-06T21:17:21.973Z,1.53
2018-07-06T21:19:49.143Z,1.53
2018-07-06T21:22:16.376Z,1.20
2018-07-06T21:24:43.517Z,1.20
2018-07-06T21:27:11.125Z,1.30
2018-07-06T21:29:38.328Z,1.53
2018-07-06T21:32:06.360Z,1.93
2018-07-06T21:34:33.523Z,1.00
2018-07-06T21:37:01.079Z,1.40
2018-07-06T21:39:28.247Z,1.07
2018-07-06T21:41:55.418Z,1.57
2018-07-06T21:44:24.676Z,1.47
2018-07-06T21:46:51.849Z,0.90
2018-07-06T21:49:19.022Z,0.80
2018-07-06T21:51:46.265Z,1.07
2018-07-06T21:54:13.441Z,1.07
2018-07-06T21:56:41.913Z,1.00
2018-07-06T21:59:09.093Z,1.10
2018-07-06T22:01:36.290Z,1.37
2018-07-06T22:04:03.453Z,1.10
2018-07-06T22:06:30.638Z,1.00
2018-07-06T22:08:57.815Z,1.13
2018-07-06T22:11:25.066Z,1.40
2018-07-06T22:13:52.711Z,1.00
2018-07-06T22:16:19.885Z,0.70
2018-07-06T22:18:47.101Z,0.80
2018-07-06T22:21:14.586Z,1.23
2018-07-06T22:23:41.761Z,1.23
2018-07-06T22:26:08.917Z,0.80
2018-07-06T22:28:36.437Z,1.60
2018-07-06T22:31:03.617Z,0.80
2018-07-06T22:33:30.814Z,0.50
2018-07-06T22:35:58.342Z,1.27
2018-07-06T22:38:25.530Z,0.60
2018-07-06T22:40:52.760Z,1.00
2018-07-06T22:43:19.943Z,0.90
2018-07-06T22:45:47.130Z,1.07
2018-07-06T22:48:14.312Z,1.10
2018-07-06T22:50:41.885Z,0.53
2018-07-06T22:53:09.060Z,1.00
2018-07-06T22:55:36.294Z,0.77
2018-07-06T22:58:03.477Z,0.93
2018-07-06T23:00:30.705Z,0.90
2018-07-06T23:02:59.060Z,0.63
2018-07-06T23:05:26.561Z,0.83
2018-07-06T23:07:53.741Z,0.87
2018-07-06T23:10:20.928Z,1.20
2018-07-06T23:12:48.534Z,0.90
2018-07-06T23:15:15.701Z,0.57
2018-07-06T23:17:42.940Z,0.90
2018-07-06T23:20:10.512Z,0.63
2018-07-06T23:23:15.182Z,0.90
2018-07-06T23:25:43.809Z,0.63
2018-07-06T23:28:11.025Z,0.90
2018-07-06T23:30:38.187Z,1.00
2018-07-06T23:33:06.505Z,0.60
2018-07-06T23:35:33.925Z,0.67
2018-07-06T23:38:01.121Z,0.77
2018-07-06T23:40:28.690Z,0.60
2018-07-06T23:42:55.948Z,1.03
2018-07-06T23:45:23.267Z,1.00
2018-07-06T23:47:50.881Z,0.87
2018-07-06T23:50:18.497Z,1.27
2018-07-06T23:52:45.689Z,0.87
2018-07-06T23:55:13.681Z,1.13
2018-07-06T23:57:40.952Z,0.77
